Time;durP1;ratioP1;P1;durP2;ratioP2;P2;SDS_P1;SDS_P2;PMS_P1;PMS_P2;Temp;Humidity;BMP_temperature;BMP_pressure;BME280_temperature;BME280_humidity;BME280_pressure;Samples;Min_cycle;Max_cycle;Signal;HPM_P1;HPM_P2
2021/12/25 00:02:01;;;;;;;0.40;0.40;;;;;;;7.31;83.07;99886.09;5097809;29;20586;-82
2021/12/25 00:04:35;;;;;;;0.65;0.65;;;;;;;7.34;83.56;99898.19;5097152;28;20044;-82
2021/12/25 00:07:06;;;;;;;0.95;0.95;;;;;;;7.42;82.74;99900.59;5082928;29;20037;-83
2021/12/25 00:09:40;;;;;;;0.93;0.93;;;;;;;7.49;83.04;99892.53;5101500;28;20482;-83
2021/12/25 00:12:17;;;;;;;0.98;0.98;;;;;;;7.49;82.44;99908.19;5102134;29;20115;-82
2021/12/25 00:14:50;;;;;;;;;;;;;;;7.27;82.74;99897.50;5103193;28;20043;-82
2021/12/25 00:18:27;;;;;;;0.77;0.77;;;;;;;7.13;82.48;99892.66;5114806;28;19933;-82
2021/12/25 00:21:10;;;;;;;0.75;0.75;;;;;;;7.12;82.91;99893.53;5066408;29;20044;-84
2021/12/25 00:23:40;;;;;;;1.10;0.98;;;;;;;7.33;82.55;99892.13;5096475;28;20047;-83
2021/12/25 00:26:24;;;;;;;1.05;1.05;;;;;;;7.38;82.55;99897.22;5113285;28;20036;-84
2021/12/25 00:29:06;;;;;;;1.13;1.13;;;;;;;7.47;82.40;99894.38;5112665;28;20035;-84
2021/12/25 00:31:50;;;;;;;3.33;1.80;;;;;;;7.28;82.16;99887.91;5107900;29;20043;-84
2021/12/25 00:34:23;;;;;;;0.73;0.73;;;;;;;7.25;82.23;99892.31;5112940;28;20067;-84
2021/12/25 00:36:57;;;;;;;0.70;0.70;;;;;;;7.25;82.44;99889.69;5103165;28;20075;-84
2021/12/25 00:39:31;;;;;;;;;;;;;;;7.17;82.65;99883.84;5065279;28;20393;-83
2021/12/25 00:42:10;;;;;;;0.93;0.93;;;;;;;7.23;82.34;99881.06;5099536;29;20009;-84
2021/12/25 00:45:03;;;;;;;0.95;0.95;;;;;;;7.27;82.82;99887.06;5046987;29;20048;-83
2021/12/25 00:47:33;;;;;;;0.80;0.80;;;;;;;7.33;81.55;99888.63;5097287;28;20165;-83
2021/12/25 00:50:07;;;;;;;0.57;0.57;;;;;;;7.27;81.02;99892.28;5098080;29;20373;-84
2021/12/25 00:52:37;;;;;;;1.23;1.23;;;;;;;7.13;81.37;99892.66;5096158;28;20408;-84
2021/12/25 00:55:10;;;;;;;0.65;0.65;;;;;;;7.13;82.48;99890.03;5112731;28;20102;-85
2021/12/25 00:57:41;;;;;;;1.50;1.40;;;;;;;7.20;82.31;99902.03;5118568;28;20035;-84
2021/12/25 01:00:13;;;;;;;0.85;0.85;;;;;;;7.05;81.59;99897.22;5103308;29;20096;-84
2021/12/25 01:02:47;;;;;;;0.80;0.80;;;;;;;6.99;82.24;99897.34;5119598;28;20051;-84
2021/12/25 01:05:18;;;;;;;0.90;0.88;;;;;;;7.21;82.53;99895.91;5116595;28;20059;-84
2021/12/25 01:07:52;;;;;;;0.55;0.55;;;;;;;7.34;81.54;99895.56;5100278;28;20043;-85
2021/12/25 01:22:31;;;;;;;1.02;1.02;;;;;;;7.22;81.95;99879.38;5143908;28;20445;-86
2021/12/25 01:31:08;;;;;;;1.75;1.65;;;;;;;6.91;82.60;99880.16;5143578;28;20053;-85
2021/12/25 01:49:51;;;;;;;1.65;1.15;;;;;;;6.91;81.61;99887.97;5160270;28;20046;-85
2021/12/25 01:52:26;;;;;;;0.70;0.70;;;;;;;6.99;81.82;99886.91;5140640;28;20035;-85
2021/12/25 01:55:00;;;;;;;1.23;1.13;;;;;;;6.70;82.45;99891.97;5130443;28;20038;-84
2021/12/25 01:57:31;;;;;;;0.70;0.70;;;;;;;6.90;81.90;99883.66;5154372;28;20037;-85
2021/12/25 02:00:08;;;;;;;0.68;0.68;;;;;;;6.85;81.89;99884.69;5138445;28;20068;-85
2021/12/25 02:02:39;;;;;;;1.02;1.02;;;;;;;6.71;81.64;99885.03;5145879;28;20158;-85
2021/12/25 02:05:09;;;;;;;0.90;0.90;;;;;;;6.82;81.56;99880.38;5141636;28;20507;-85
2021/12/25 02:07:40;;;;;;;0.68;0.68;;;;;;;6.76;81.72;99881.41;5130697;28;20430;-86
2021/12/25 02:10:13;;;;;;;1.00;0.95;;;;;;;6.69;82.35;99878.97;5128773;28;20022;-85
2021/12/25 02:12:45;;;;;;;0.63;0.63;;;;;;;6.65;82.34;99882.56;5146683;28;20478;-85
2021/12/25 02:15:20;;;;;;;0.50;0.50;;;;;;;6.61;80.97;99877.41;5128038;28;20038;-85
2021/12/25 02:20:38;;;;;;;0.50;0.50;;;;;;;6.58;81.52;99880.09;5133968;28;20338;-84
2021/12/25 02:23:15;;;;;;;1.45;1.35;;;;;;;6.56;81.56;99879.28;5130092;28;20110;-85
2021/12/25 02:25:46;;;;;;;0.73;0.73;;;;;;;6.21;81.56;99883.56;5125855;28;20049;-84
2021/12/25 02:28:17;;;;;;;0.77;0.77;;;;;;;6.33;82.07;99876.34;5144007;28;20046;-86
2021/12/25 02:30:50;;;;;;;0.52;0.52;;;;;;;6.27;82.12;99883.41;5142106;28;20171;-85
2021/12/25 02:33:20;;;;;;;0.40;0.40;;;;;;;6.20;82.36;99881.00;5127169;28;20383;-85
2021/12/25 02:35:51;;;;;;;0.50;0.50;;;;;;;6.10;82.53;99875.13;5143365;28;20046;-84
2021/12/25 02:38:23;;;;;;;0.47;0.47;;;;;;;6.08;82.53;99876.91;5143908;28;20073;-85
2021/12/25 02:40:54;;;;;;;0.60;0.60;;;;;;;6.01;82.14;99875.31;5142859;28;20029;-85
2021/12/25 02:43:25;;;;;;;0.65;0.65;;;;;;;6.10;80.96;99880.34;5125561;28;20065;-85
2021/12/25 02:46:01;;;;;;;0.40;0.40;;;;;;;5.88;82.01;99872.97;5143746;28;20104;-86
2021/12/25 02:48:36;;;;;;;0.63;0.63;;;;;;;6.12;82.16;99876.81;5116901;28;20039;-85
2021/12/25 02:51:09;;;;;;;0.60;0.60;;;;;;;6.11;82.23;99879.44;5136721;28;20037;-86
2021/12/25 02:53:42;;;;;;;0.55;0.55;;;;;;;6.11;81.66;99872.50;5112654;28;20034;-86
2021/12/25 02:56:13;;;;;;;0.70;0.70;;;;;;;6.05;81.67;99877.00;5127638;28;20037;-86
2021/12/25 02:58:43;;;;;;;1.63;1.52;;;;;;;5.85;81.00;99880.00;5129188;28;20560;-86
2021/12/25 03:01:18;;;;;;;0.40;0.40;;;;;;;5.72;81.17;99875.03;5123428;28;20027;-86
2021/12/25 03:03:49;;;;;;;0.50;0.50;;;;;;;5.96;81.51;99873.66;5126306;28;20457;-86
2021/12/25 03:06:20;;;;;;;1.58;1.45;;;;;;;5.93;81.33;99868.50;5109932;28;20026;-86
2021/12/25 03:08:51;;;;;;;0.73;0.73;;;;;;;5.81;80.95;99869.63;5125146;28;20038;-86
2021/12/25 03:11:23;;;;;;;0.60;0.60;;;;;;;5.91;81.04;99867.69;5126826;28;20030;-85
2021/12/25 03:14:12;;;;;;;0.93;0.93;;;;;;;5.91;80.88;99864.22;5122785;28;20065;-86
2021/12/25 03:16:43;;;;;;;0.60;0.60;;;;;;;5.97;81.51;99871.91;5109976;28;20208;-84
2021/12/25 03:19:21;;;;;;;0.60;0.60;;;;;;;6.09;81.59;99869.06;5126169;28;20132;-85
2021/12/25 03:21:52;;;;;;;0.60;0.60;;;;;;;6.10;81.45;99875.13;5126709;28;20165;-83
2021/12/25 03:24:22;;;;;;;0.80;0.80;;;;;;;5.98;81.38;99879.69;5107419;28;20094;-84
2021/12/25 03:26:56;;;;;;;0.57;0.57;;;;;;;6.08;81.56;99879.50;5134194;28;20145;-83
2021/12/25 03:29:27;;;;;;;0.73;0.73;;;;;;;6.05;80.63;99884.81;5109431;28;20034;-83
2021/12/25 03:31:58;;;;;;;1.13;1.10;;;;;;;6.06;81.42;99878.72;5127012;28;20037;-84
2021/12/25 03:34:28;;;;;;;0.80;0.80;;;;;;;6.03;81.33;99878.75;5108836;28;20418;-84
2021/12/25 03:37:00;;;;;;;0.55;0.55;;;;;;;5.55;81.01;99887.50;5127590;28;20034;-84
2021/12/25 03:39:31;;;;;;;1.35;1.25;;;;;;;5.61;81.65;99887.41;5142562;28;20495;-83
2021/12/25 03:42:02;;;;;;;0.75;0.75;;;;;;;5.73;81.94;99887.16;5129246;28;20034;-83
2021/12/25 03:44:35;;;;;;;0.50;0.50;;;;;;;5.96;81.19;99886.69;5116074;28;20083;-84
2021/12/25 03:47:23;;;;;;;1.40;1.33;;;;;;;5.80;81.50;99886.13;5146017;28;20036;-84
2021/12/25 03:58:28;;;;;;;0.80;0.80;;;;;;;5.96;80.95;99891.88;5127788;28;20034;-82
2021/12/25 04:01:11;;;;;;;1.05;1.05;;;;;;;6.09;80.80;99889.91;5140059;28;20038;-84
2021/12/25 04:04:00;;;;;;;;;;;;;;;5.86;80.55;99890.38;5125466;28;20042;-83
2021/12/25 04:06:31;;;;;;;1.50;1.13;;;;;;;5.72;80.74;99890.63;5109677;28;19993;-84
2021/12/25 04:09:09;;;;;;;1.08;1.08;;;;;;;5.79;81.49;99887.03;5130265;28;20038;-83
2021/12/25 04:11:43;;;;;;;1.92;1.65;;;;;;;5.87;81.40;99891.22;5149088;28;20037;-83
2021/12/25 04:14:13;;;;;;;;;;;;;;;5.65;81.35;99891.66;5127296;28;20046;-84
2021/12/25 04:16:44;;;;;;;0.57;0.57;;;;;;;5.77;81.45;99891.41;5142780;28;19918;-84
2021/12/25 04:19:15;;;;;;;0.68;0.68;;;;;;;5.93;80.94;99896.31;5124474;28;20130;-84
2021/12/25 04:22:06;;;;;;;1.38;1.38;;;;;;;5.65;81.18;99899.47;5140349;28;20045;-84
2021/12/25 04:24:40;;;;;;;2.70;2.05;;;;;;;5.39;82.10;99894.78;5154314;28;20488;-84
2021/12/25 04:27:14;;;;;;;0.88;0.88;;;;;;;5.35;82.65;99897.44;5140539;28;20038;-83
2021/12/25 04:30:02;;;;;;;1.45;1.35;;;;;;;5.34;82.42;99900.06;5124848;28;20105;-84
2021/12/25 05:03:37;;;;;;;1.38;1.15;;;;;;;5.06;81.15;99928.31;5154906;28;20180;-84
2021/12/25 05:06:07;;;;;;;0.47;0.47;;;;;;;5.26;81.55;99917.56;5125741;28;20515;-83
2021/12/25 05:09:08;;;;;;;1.73;1.63;;;;;;;5.18;81.65;99920.28;5125285;28;20034;-84
2021/12/25 05:15:13;;;;;;;1.60;1.50;;;;;;;5.12;81.42;99926.47;5570568;23;20041;-83
2021/12/25 05:17:43;;;;;;;1.42;1.27;;;;;;;5.02;81.73;99919.72;5166847;28;20416;-84
2021/12/25 05:20:14;;;;;;;0.73;0.73;;;;;;;5.15;81.98;99925.56;5189662;28;20029;-84
2021/12/25 05:22:44;;;;;;;0.90;0.90;;;;;;;5.10;81.19;99923.03;5183981;28;20427;-84
2021/12/25 05:25:15;;;;;;;1.67;1.58;;;;;;;4.92;80.92;99923.34;5192405;28;20048;-84
2021/12/25 05:28:02;;;;;;;0.55;0.55;;;;;;;4.53;82.38;99921.34;5181020;28;20115;-83
2021/12/25 05:30:32;;;;;;;1.27;1.27;;;;;;;4.76;81.67;99923.59;5160694;28;20029;-84
2021/12/25 05:33:03;;;;;;;0.70;0.70;;;;;;;4.48;82.62;99928.34;5203514;28;20060;-84
2021/12/25 05:35:33;;;;;;;0.90;0.90;;;;;;;4.50;82.83;99929.19;5185405;28;20154;-84
2021/12/25 05:38:09;;;;;;;2.78;1.48;;;;;;;4.64;82.38;99931.56;5196523;28;20034;-84
2021/12/25 05:40:42;;;;;;;1.35;1.33;;;;;;;4.76;81.06;99933.13;5188744;28;20415;-84
2021/12/25 05:43:14;;;;;;;1.05;1.05;;;;;;;4.42;83.03;99934.50;5165748;28;20046;-83
2021/12/25 05:45:44;;;;;;;1.13;1.13;;;;;;;4.40;82.43;99947.50;5199139;28;20059;-84
2021/12/25 05:48:18;;;;;;;1.83;1.40;;;;;;;4.60;81.33;99940.31;5169177;28;20118;-84
2021/12/25 05:50:49;;;;;;;0.90;0.90;;;;;;;4.42;82.65;99939.69;5211982;28;20037;-84
2021/12/25 05:53:19;;;;;;;1.05;1.05;;;;;;;4.61;82.55;99944.63;5182797;28;20047;-83
2021/12/25 05:55:49;;;;;;;1.05;1.05;;;;;;;4.66;81.51;99942.81;5171127;28;20098;-83
2021/12/25 05:58:20;;;;;;;0.77;0.77;;;;;;;4.37;81.02;99937.16;5183649;28;20047;-83
2021/12/25 06:00:51;;;;;;;0.70;0.70;;;;;;;4.56;82.01;99947.28;5220656;28;20045;-84
2021/12/25 06:03:21;;;;;;;0.90;0.90;;;;;;;4.45;81.71;99950.03;5182237;28;20475;-84
2021/12/25 06:05:52;;;;;;;0.50;0.50;;;;;;;4.37;81.96;99950.13;5183827;28;20038;-84
2021/12/25 06:08:28;;;;;;;0.60;0.60;;;;;;;4.50;81.70;99957.78;5184008;28;20034;-83
2021/12/25 06:11:02;;;;;;;1.13;1.02;;;;;;;4.65;80.96;99954.06;5182236;28;20056;-83
2021/12/25 06:13:36;;;;;;;;;;;;;;;4.54;80.08;99959.44;5167742;28;20521;-84
2021/12/25 06:16:06;;;;;;;0.80;0.80;;;;;;;4.47;81.58;99965.59;5180659;28;19913;-84
2021/12/25 06:18:37;;;;;;;2.00;1.90;;;;;;;4.40;82.16;99978.69;5187030;28;20961;-84
2021/12/25 06:21:07;;;;;;;1.10;1.10;;;;;;;4.64;81.25;99971.41;5183635;28;20120;-82
2021/12/25 06:23:38;;;;;;;0.93;0.93;;;;;;;4.30;81.20;99977.09;5198949;28;20034;-84
2021/12/25 06:26:08;;;;;;;1.05;1.05;;;;;;;4.19;81.77;99984.13;5196705;28;20025;-84
2021/12/25 06:28:38;;;;;;;0.70;0.70;;;;;;;4.45;81.46;99986.41;5200413;28;20500;-83
2021/12/25 06:31:09;;;;;;;1.20;1.20;;;;;;;4.43;81.99;99993.38;5182967;28;20028;-84
2021/12/25 06:33:39;;;;;;;0.50;0.50;;;;;;;4.18;81.71;99993.69;5183270;28;20518;-84
2021/12/25 06:36:10;;;;;;;0.60;0.60;;;;;;;4.28;81.04;100002.19;5182098;28;20029;-84
2021/12/25 06:38:41;;;;;;;0.80;0.80;;;;;;;4.38;80.34;100000.38;5198265;28;20079;-85
2021/12/25 06:41:13;;;;;;;0.85;0.85;;;;;;;4.02;81.88;100008.56;5184825;28;20125;-85
2021/12/25 06:43:43;;;;;;;1.00;1.00;;;;;;;4.13;80.63;100010.19;5204135;28;20065;-84
2021/12/25 06:46:14;;;;;;;0.77;0.77;;;;;;;4.23;81.72;100006.59;5204307;28;20119;-84
2021/12/25 06:48:44;;;;;;;0.70;0.70;;;;;;;4.36;80.99;100013.34;5184253;28;20053;-84
2021/12/25 06:51:15;;;;;;;1.05;1.05;;;;;;;4.28;80.36;100010.00;5164983;28;20056;-84
2021/12/25 06:53:45;;;;;;;0.77;0.77;;;;;;;4.18;80.25;100006.66;5183780;28;20041;-85
2021/12/25 06:56:16;;;;;;;0.60;0.60;;;;;;;3.99;81.02;100007.75;5168558;28;20266;-84
2021/12/25 06:58:46;;;;;;;5.78;1.65;;;;;;;4.16;81.17;100011.00;5216408;28;20048;-84
2021/12/25 07:01:17;;;;;;;0.93;0.93;;;;;;;4.20;80.09;100017.03;5196026;28;20033;-84
2021/12/25 07:03:47;;;;;;;0.93;0.93;;;;;;;4.06;80.29;100015.47;5198832;28;20041;-85
2021/12/25 07:06:18;;;;;;;0.80;0.80;;;;;;;3.90;80.60;100021.69;5195972;28;20354;-84
2021/12/25 07:08:51;;;;;;;;;;;;;;;4.13;80.53;100025.75;5167415;28;20436;-85
2021/12/25 07:11:22;;;;;;;0.80;0.80;;;;;;;4.01;79.86;100021.56;5205839;28;19913;-84
2021/12/25 07:13:52;;;;;;;1.05;1.02;;;;;;;3.88;80.65;100032.09;5196291;28;20501;-84
2021/12/25 07:16:23;;;;;;;1.50;1.40;;;;;;;3.88;81.43;100036.41;5183936;28;20029;-84
2021/12/25 07:18:53;;;;;;;0.55;0.55;;;;;;;4.00;81.33;100035.44;5180370;28;20275;-83
2021/12/25 07:21:27;;;;;;;0.60;0.60;;;;;;;3.77;80.96;100039.13;5166378;28;20036;-83
2021/12/25 07:23:57;;;;;;;0.68;0.68;;;;;;;3.87;80.16;100037.28;5166031;28;20034;-84
2021/12/25 07:26:29;;;;;;;0.50;0.50;;;;;;;4.03;80.81;100045.78;5183448;28;20075;-84
2021/12/25 07:28:59;;;;;;;0.70;0.70;;;;;;;3.96;81.02;100045.00;5199285;28;20064;-85
2021/12/25 07:31:32;;;;;;;0.50;0.50;;;;;;;3.77;80.84;100045.16;5181239;28;20045;-84
2021/12/25 07:34:03;;;;;;;1.02;1.02;;;;;;;3.87;80.10;100045.09;5179855;28;20040;-84
2021/12/25 07:36:33;;;;;;;1.60;1.50;;;;;;;3.53;80.80;100051.47;5164561;28;20033;-83
2021/12/25 07:39:04;;;;;;;1.15;1.15;;;;;;;3.64;81.44;100061.75;5214751;28;20072;-83
2021/12/25 07:41:34;;;;;;;0.73;0.73;;;;;;;3.59;80.90;100060.94;5164722;28;20032;-83
2021/12/25 07:44:05;;;;;;;0.82;0.82;;;;;;;3.21;82.20;100064.69;5198114;28;20037;-83
2021/12/25 07:46:35;;;;;;;1.77;1.67;;;;;;;3.51;81.15;100067.91;5185135;28;20045;-83
2021/12/25 07:49:06;;;;;;;3.13;1.80;;;;;;;3.35;81.04;100070.63;5197298;28;20045;-84
2021/12/25 07:51:37;;;;;;;0.60;0.60;;;;;;;3.40;80.96;100071.47;5176441;28;20118;-83
2021/12/25 07:54:09;;;;;;;0.50;0.50;;;;;;;3.14;81.42;100064.72;5201282;28;20513;-83
2021/12/25 07:56:39;;;;;;;0.50;0.50;;;;;;;3.41;80.78;100078.38;5174835;28;20037;-84
2021/12/25 07:59:10;;;;;;;0.45;0.45;;;;;;;3.45;80.81;100077.47;5170731;28;20033;-83
2021/12/25 08:01:41;;;;;;;0.50;0.50;;;;;;;3.44;81.27;100077.47;5200885;28;20044;-83
2021/12/25 08:04:12;;;;;;;0.68;0.68;;;;;;;3.46;80.95;100086.97;5182437;28;20405;-81
2021/12/25 08:06:42;;;;;;;1.23;1.13;;;;;;;3.42;81.09;100085.28;5203974;28;20026;-84
2021/12/25 08:13:32;;;;;;;0.65;0.65;;;;;;;3.42;81.02;100084.41;5242771;23;20034;-84
2021/12/25 08:16:03;;;;;;;1.08;1.08;;;;;;;3.36;81.04;100092.25;5184691;28;20017;-83
2021/12/25 08:18:34;;;;;;;0.70;0.70;;;;;;;3.34;81.22;100089.66;5188622;28;20269;-83
2021/12/25 08:21:05;;;;;;;1.55;1.45;;;;;;;3.28;80.85;100089.69;5204294;28;20044;-84
2021/12/25 08:23:35;;;;;;;0.60;0.60;;;;;;;3.28;80.57;100092.28;5142010;28;20034;-83
2021/12/25 08:26:06;;;;;;;0.93;0.93;;;;;;;3.38;81.04;100096.53;5158330;28;20026;-81
2021/12/25 08:28:37;;;;;;;1.08;1.08;;;;;;;3.11;81.68;100093.25;5151760;28;20026;-82
2021/12/25 08:31:08;;;;;;;0.52;0.52;;;;;;;3.14;82.20;100095.84;5155769;28;20092;-83
2021/12/25 08:33:38;;;;;;;0.80;0.80;;;;;;;3.42;81.34;100106.03;5159473;28;20038;-82
2021/12/25 08:36:09;;;;;;;0.60;0.60;;;;;;;3.27;80.29;100103.53;5141568;28;20034;-83
2021/12/25 08:38:39;;;;;;;0.90;0.90;;;;;;;3.10;81.94;100109.69;5157939;28;20038;-83
2021/12/25 08:41:10;;;;;;;0.60;0.60;;;;;;;3.11;81.60;100108.81;5157434;28;20026;-82
2021/12/25 08:43:56;;;;;;;0.88;0.88;;;;;;;3.13;81.72;100116.59;5177916;28;20038;-84
2021/12/25 08:46:45;;;;;;;1.75;1.65;;;;;;;3.23;81.62;100114.81;5162668;28;20034;-82
2021/12/25 08:49:16;;;;;;;1.00;1.00;;;;;;;2.92;82.34;100115.00;5163322;28;20159;-82
2021/12/25 08:51:46;;;;;;;0.80;0.80;;;;;;;2.91;82.84;100119.28;5184447;28;20037;-82
2021/12/25 08:54:17;;;;;;;1.58;0.88;;;;;;;3.02;82.16;100124.41;5150854;28;20045;-82
2021/12/25 08:56:48;;;;;;;0.73;0.73;;;;;;;3.31;81.11;100125.97;5166411;28;20080;-81
2021/12/25 08:59:18;;;;;;;0.50;0.50;;;;;;;3.20;80.90;100127.78;5166469;28;20042;-82
2021/12/25 09:01:49;;;;;;;0.57;0.57;;;;;;;3.21;81.15;100132.97;5184406;28;20034;-83
2021/12/25 09:04:20;;;;;;;0.55;0.55;;;;;;;3.08;81.48;100132.19;5153417;28;20034;-82
2021/12/25 09:06:50;;;;;;;0.60;0.60;;;;;;;2.99;81.23;100140.00;5168979;28;20026;-81
2021/12/25 09:09:21;;;;;;;0.80;0.80;;;;;;;3.33;81.06;100132.03;5150860;28;20033;-81
2021/12/25 09:11:52;;;;;;;0.65;0.65;;;;;;;3.30;80.17;100142.41;5171476;28;20223;-82
2021/12/25 09:14:22;;;;;;;0.95;0.95;;;;;;;3.06;80.84;100133.91;5162537;28;20038;-82
2021/12/25 09:16:53;;;;;;;0.50;0.50;;;;;;;3.05;81.00;100144.28;5164788;28;20033;-82
2021/12/25 09:19:23;;;;;;;0.60;0.60;;;;;;;3.00;81.21;100144.31;5162681;28;20042;-82
2021/12/25 09:21:57;;;;;;;0.80;0.80;;;;;;;3.17;81.27;100146.81;5164618;28;20725;-82
2021/12/25 09:24:28;;;;;;;1.13;1.13;;;;;;;2.98;80.27;100156.41;5179807;28;20026;-82
2021/12/25 09:26:58;;;;;;;0.77;0.77;;;;;;;2.87;82.02;100145.22;5150339;28;20350;-82
2021/12/25 09:29:29;;;;;;;0.88;0.88;;;;;;;2.82;81.52;100153.91;5171095;28;20394;-82
2021/12/25 09:32:00;;;;;;;0.57;0.57;;;;;;;2.77;82.27;100153.03;5167540;28;20034;-82
2021/12/25 09:34:31;;;;;;;0.50;0.50;;;;;;;2.81;82.20;100159.09;5183630;28;20030;-82
2021/12/25 09:37:14;;;;;;;;;;;;;;;;;;;;;
2021/12/25 09:39:45;;;;;;;0.43;0.43;;;;;;;2.68;81.64;100169.50;5198383;28;20096;-82
2021/12/25 09:42:25;;;;;;;0.77;0.77;;;;;;;2.81;82.24;100165.13;5169506;28;20084;-82
2021/12/25 09:44:55;;;;;;;0.95;0.95;;;;;;;2.62;81.93;100171.22;5170249;28;20033;-82
2021/12/25 09:47:26;;;;;;;0.52;0.52;;;;;;;2.73;82.94;100166.03;5171209;28;20064;-82
2021/12/25 09:49:57;;;;;;;0.60;0.60;;;;;;;2.89;81.49;100170.28;5189762;28;20033;-82
2021/12/25 09:52:27;;;;;;;0.60;0.60;;;;;;;2.77;81.74;100173.75;5172487;28;20807;-82
2021/12/25 09:54:58;;;;;;;0.50;0.50;;;;;;;2.75;82.00;100170.34;5174225;28;20045;-82
2021/12/25 09:57:29;;;;;;;2.67;1.08;;;;;;;2.92;82.10;100182.38;5170701;28;20229;-80
2021/12/25 10:00:07;;;;;;;0.50;0.50;;;;;;;2.75;81.50;100179.81;5185510;28;20072;-80
2021/12/25 10:02:46;;;;;;;0.93;0.93;;;;;;;2.81;81.91;100183.28;5168375;28;20030;-80
2021/12/25 10:05:43;;;;;;;0.52;0.52;;;;;;;2.92;82.02;100184.97;5184885;28;20060;-80
2021/12/25 10:08:18;;;;;;;0.63;0.63;;;;;;;3.04;81.41;100195.25;5170864;28;20406;-80
2021/12/25 10:11:00;;;;;;;0.40;0.40;;;;;;;3.13;80.52;100184.84;5170580;28;20045;-81
2021/12/25 10:13:38;;;;;;;0.60;0.60;;;;;;;3.16;81.08;100189.16;5169220;28;20046;-81
2021/12/25 10:16:20;;;;;;;0.60;0.60;;;;;;;3.01;81.18;100179.75;5188609;28;20049;-82
2021/12/25 10:19:10;;;;;;;0.43;0.43;;;;;;;3.01;81.26;100179.75;5183712;28;20049;-82
2021/12/25 10:21:41;;;;;;;0.57;0.57;;;;;;;2.89;81.17;100177.19;5185159;28;20490;-81
2021/12/25 10:24:25;;;;;;;0.38;0.38;;;;;;;2.74;81.18;100178.97;5144993;28;20044;-82
2021/12/25 10:27:16;;;;;;;0.73;0.73;;;;;;;2.73;81.70;100174.66;5169518;28;20048;-81
2021/12/25 10:29:47;;;;;;;0.60;0.60;;;;;;;2.95;80.88;100169.38;5151566;28;20037;-81
2021/12/25 10:32:19;;;;;;;0.40;0.40;;;;;;;2.72;81.31;100170.34;5165861;28;20084;-81
2021/12/25 10:34:53;;;;;;;0.80;0.80;;;;;;;2.90;81.98;100172.00;5163541;28;20056;-81
2021/12/25 10:37:39;;;;;;;0.45;0.45;;;;;;;3.06;80.72;100167.59;5167831;28;20030;-81
2021/12/25 10:40:31;;;;;;;0.65;0.65;;;;;;;2.79;81.52;100166.84;5169193;28;20045;-82
2021/12/25 10:43:03;;;;;;;0.50;0.50;;;;;;;2.76;81.91;100160.84;5149349;28;20029;-81
2021/12/25 10:45:34;;;;;;;0.40;0.40;;;;;;;2.62;81.50;100161.75;5184992;28;20035;-82
2021/12/25 10:48:08;;;;;;;0.40;0.40;;;;;;;2.79;81.27;100173.78;5183793;28;20669;-82
2021/12/25 10:50:43;;;;;;;0.47;0.47;;;;;;;2.82;81.42;100171.16;5164870;28;20514;-81
2021/12/25 10:53:34;;;;;;;0.65;0.65;;;;;;;2.83;81.60;100168.59;5162749;28;20046;-80
2021/12/25 10:56:12;;;;;;;1.02;1.02;;;;;;;2.78;81.48;100166.88;5187437;28;20026;-80
2021/12/25 10:58:48;;;;;;;0.60;0.60;;;;;;;2.80;80.67;100166.00;5169171;28;20065;-81
2021/12/25 11:01:53;;;;;;;0.77;0.77;;;;;;;2.61;81.06;100182.47;5193672;22;20504;-82
2021/12/25 11:04:28;;;;;;;0.52;0.52;;;;;;;2.89;81.00;100178.06;5217299;28;20022;-82
2021/12/25 11:07:10;;;;;;;1.42;1.40;;;;;;;2.85;81.24;100178.09;5175180;28;20505;-81
2021/12/25 11:10:03;;;;;;;0.50;0.50;;;;;;;2.93;80.49;100184.94;5176445;28;20041;-81
2021/12/25 11:12:35;;;;;;;0.55;0.55;;;;;;;3.05;80.80;100184.03;5203296;28;20040;-81
2021/12/25 11:15:19;;;;;;;0.68;0.68;;;;;;;2.59;80.84;100190.25;5190750;28;20041;-81
2021/12/25 11:17:53;;;;;;;2.40;1.80;;;;;;;2.75;80.64;100200.56;5188305;28;20111;-81
2021/12/25 11:20:43;;;;;;;5.55;1.08;;;;;;;2.87;80.52;100195.34;5207818;28;20041;-81
2021/12/25 11:23:15;;;;;;;0.40;0.40;;;;;;;2.97;79.72;100196.16;5200897;28;20521;-82
2021/12/25 11:25:45;;;;;;;0.63;0.63;;;;;;;2.88;80.23;100188.41;5188942;28;20033;-81
2021/12/25 11:28:27;;;;;;;1.25;1.25;;;;;;;2.76;80.33;100182.44;5174565;28;20039;-80
2021/12/25 11:31:03;;;;;;;0.40;0.40;;;;;;;2.52;80.54;100181.63;5211790;28;20049;-81
2021/12/25 11:37:28;;;;;;;0.60;0.60;;;;;;;2.83;80.25;100173.75;5089486;29;20071;-83
2021/12/25 12:16:19;;;;;;;;;;;;;;;;;;;;;
2021/12/25 12:18:52;;;;;;;0.50;0.50;;;;;;;2.60;78.40;100170.41;5110003;28;20070;-81
2021/12/25 12:21:23;;;;;;;0.75;0.75;;;;;;;2.55;78.56;100174.72;5109830;28;20507;-81
2021/12/25 12:26:48;;;;;;;0.80;0.80;;;;;;;2.54;80.03;100176.47;5143692;28;20035;-81
2021/12/25 12:29:37;;;;;;;0.98;0.98;;;;;;;2.35;79.88;100176.50;5139590;28;20047;-82
2021/12/25 12:32:33;;;;;;;0.50;0.50;;;;;;;2.64;78.69;100178.16;5109155;29;20032;-82
2021/12/25 12:35:31;;;;;;;0.65;0.65;;;;;;;2.39;79.97;100182.53;5117571;29;20075;-82
2021/12/25 12:38:37;;;;;;;0.43;0.43;;;;;;;2.56;78.49;100179.03;5117359;29;20120;-81
2021/12/25 12:41:27;;;;;;;0.50;0.50;;;;;;;2.36;80.04;100172.16;5140854;28;20035;-81
2021/12/25 12:44:07;;;;;;;2.15;1.13;;;;;;;2.48;79.44;100181.66;5129654;28;20027;-81
2021/12/25 12:46:50;;;;;;;0.45;0.45;;;;;;;2.33;78.87;100182.53;5129603;28;20383;-81
2021/12/25 12:49:28;;;;;;;0.57;0.57;;;;;;;2.37;78.99;100184.25;5122424;29;20048;-81
2021/12/25 12:52:26;;;;;;;0.50;0.50;;;;;;;2.64;79.11;100179.88;5115355;29;20283;-81
2021/12/25 12:55:02;;;;;;;0.60;0.60;;;;;;;2.55;78.80;100187.66;5095637;29;20563;-81
2021/12/25 12:57:45;;;;;;;0.52;0.52;;;;;;;2.59;79.18;100186.81;5111076;29;20409;-80
2021/12/25 13:00:22;;;;;;;0.50;0.50;;;;;;;2.54;79.52;100188.53;5126980;28;20035;-81
2021/12/25 13:02:57;;;;;;;0.90;0.90;;;;;;;2.46;78.71;100185.97;5108783;28;20126;-81
2021/12/25 13:05:35;;;;;;;0.85;0.85;;;;;;;2.13;78.86;100185.16;5142049;28;20037;-81
2021/12/25 13:08:17;;;;;;;0.52;0.52;;;;;;;2.22;78.80;100185.16;5120972;29;20055;-81
2021/12/25 13:10:52;;;;;;;0.50;0.50;;;;;;;2.39;79.24;100186.84;5128671;28;20065;-80
2021/12/25 13:13:28;;;;;;;0.82;0.82;;;;;;;2.45;78.69;100187.69;5120854;28;20084;-81
2021/12/25 13:16:05;;;;;;;0.57;0.57;;;;;;;2.50;79.19;100190.25;5122799;29;20081;-81
2021/12/25 13:18:48;;;;;;;0.70;0.70;;;;;;;2.18;79.23;100192.06;5107618;29;20039;-81
2021/12/25 13:21:22;;;;;;;0.60;0.60;;;;;;;2.22;79.09;100194.63;5109219;29;20128;-81
2021/12/25 13:23:58;;;;;;;0.50;0.50;;;;;;;2.40;79.12;100199.78;5129335;28;20324;-81
2021/12/25 13:26:37;;;;;;;0.90;0.90;;;;;;;2.10;79.57;100198.09;5108991;29;20041;-81
2021/12/25 13:29:11;;;;;;;0.55;0.55;;;;;;;2.39;78.98;100205.84;5117710;29;20102;-81
2021/12/25 13:31:43;;;;;;;1.17;1.17;;;;;;;2.38;78.01;100198.94;5121421;28;20019;-81
2021/12/25 13:34:18;;;;;;;0.50;0.50;;;;;;;2.45;77.94;100192.84;5133850;28;20043;-81
2021/12/25 13:36:55;;;;;;;1.35;1.27;;;;;;;2.56;78.68;100198.03;5132059;28;20166;-81
2021/12/25 13:39:30;;;;;;;1.92;1.83;;;;;;;2.37;78.72;100204.97;5133971;28;20508;-81
2021/12/25 13:42:11;;;;;;;1.05;1.05;;;;;;;2.23;79.29;100204.13;5102901;29;20045;-81
2021/12/25 13:44:44;;;;;;;0.50;0.50;;;;;;;2.30;78.31;100209.31;5099660;29;20431;-81
2021/12/25 13:47:27;;;;;;;0.50;0.50;;;;;;;2.18;78.35;100193.78;5098615;29;20093;-86
2021/12/25 13:50:01;;;;;;;0.70;0.70;;;;;;;2.35;78.66;100202.38;5143378;28;20090;-82
2021/12/25 13:52:36;;;;;;;2.38;2.17;;;;;;;2.40;78.21;100201.53;5113642;29;20033;-81
2021/12/25 13:55:12;;;;;;;0.40;0.40;;;;;;;2.55;78.32;100200.63;5125377;29;20415;-82
2021/12/25 13:57:58;;;;;;;0.60;0.60;;;;;;;2.30;77.97;100198.94;5125289;28;20031;-82
2021/12/25 14:00:34;;;;;;;0.50;0.50;;;;;;;2.39;78.42;100199.81;5127352;28;20035;-81
2021/12/25 14:03:12;;;;;;;0.70;0.70;;;;;;;2.42;78.29;100202.38;5105429;28;20051;-81
2021/12/25 14:05:46;;;;;;;0.50;0.50;;;;;;;2.28;78.12;100195.50;5127114;28;20059;-81
2021/12/25 14:08:23;;;;;;;0.65;0.65;;;;;;;2.19;77.65;100206.72;5126801;28;20070;-81
2021/12/25 14:10:59;;;;;;;1.95;1.30;;;;;;;2.42;77.64;100208.44;5109810;29;20495;-81
2021/12/25 14:13:34;;;;;;;0.80;0.80;;;;;;;2.54;77.63;100209.25;5098123;29;20051;-81
2021/12/25 14:16:05;;;;;;;0.60;0.60;;;;;;;2.38;78.18;100217.03;5123740;28;20027;-81
2021/12/25 14:18:38;;;;;;;0.63;0.63;;;;;;;2.32;77.01;100217.06;5138840;28;20047;-81
2021/12/25 14:21:21;;;;;;;0.63;0.63;;;;;;;2.40;78.01;100210.16;5112232;29;20439;-82
2021/12/25 14:24:15;;;;;;;0.40;0.40;;;;;;;2.27;76.91;100209.31;5123471;29;20071;-81
2021/12/25 14:27:28;;;;;;;0.40;0.40;;;;;;;2.48;77.87;100208.41;5116275;29;20050;-82